Terminal Aerodrome Forecast
Issued by NWS Lake Charles, LA

Home | Current Version | Previous Version | Text Only | Print | Product List | Glossary On
Versions: 1 2 3 4 5 6 7 8 9 10 11 12 13 14 15
000
FTUS44 KLCH 061723
TAFARA
TAF
KARA 061723Z 0618/0718 19012KT P6SM SCT035 BKN250
     FM070000 17005KT P6SM FEW030 BKN250
      TEMPO 0710/0714 5SM BR BKN025
     FM071400 18012KT P6SM SCT035 SCT250
      AMD NOT SKED=

USA.gov is the U.S. government's official web portal to all federal, state and local government web resources and services.